Almak — UCEL — position and weather

sailwx.info

Track history (hours):
 
Tides and Currents Weather Stations Pressure Air Temp Water Temp Dewpoint Dewpoint Depression Visibility Wind Speed Wind Dir Waves Ship Positions

Almak

Last reported at 2017-Jan-23 17:33 UTC. Time now 2017-Jan-23 23:04 UTC.
Position N 70°14' E 017°08'.

Length 42 m; draft 6.5 m.

Type: Fishing. MMSI: 273317270.

Date/timePositionNaut miles runAvg speedWind from/ knotsBaromVisibWave heightAir tempDewpointWater temp
2017-Jan-23 17:33N 70°14' E 017°08'1 1.1
2017-Jan-23 16:33N 70°14' E 017°11'4 3.7
2017-Jan-23 15:33N 70°10' E 017°12'5 1.8
2017-Jan-23 12:33N 70°05' E 017°15'5 4.8
2017-Jan-23 11:33N 70°08' E 017°26'3 2.2
2017-Jan-23 10:16N 70°05' E 017°29'2 3.1
2017-Jan-23 09:33N 70°07' E 017°25'3 3.1
2017-Jan-23 08:33N 70°10' E 017°24'3 3.0
2017-Jan-23 07:33N 70°13' E 017°22'3 3.4
2017-Jan-23 06:33N 70°14' E 017°13'3 3.3
2017-Jan-23 05:33N 70°11' E 017°10'4 4.0
2017-Jan-23 04:33N 70°07' E 017°11'4 3.9
2017-Jan-23 03:33N 70°04' E 017°06'3 3.4
2017-Jan-23 02:33N 70°02' E 016°58'10 9.7
2017-Jan-23 01:33N 70°11' E 017°03'10 9.7
2017-Jan-23 00:33N 70°21' E 017°13'1 1.4
2017-Jan-22 23:33N 70°22' E 017°15'3 3.1
2017-Jan-22 22:33N 70°19' E 017°11'3 3.4
2017-Jan-22 21:33N 70°16' E 017°09'4 3.6
2017-Jan-22 20:33N 70°12' E 017°10'7 3.3
2017-Jan-22 18:20N 70°13' E 017°31'18 2.2
2017-Jan-22 10:18N 70°25' E 018°09'6 7.5
2017-Jan-22 09:31N 70°24' E 017°52'1010.2
2017-Jan-22 08:33N 70°22' E 017°23'3 2.6
2017-Jan-22 07:33N 70°19' E 017°20'3 3.4
2017-Jan-22 06:33N 70°17' E 017°26'3 3.4
2017-Jan-22 05:33N 70°16' E 017°36'2 2.1
2017-Jan-22 04:33N 70°14' E 017°34'4 3.6
2017-Jan-22 03:33N 70°13' E 017°25'4 3.5
2017-Jan-22 02:33N 70°12' E 017°14'0 0.4
2017-Jan-22 01:34N 70°13' E 017°15'5 2.6
2017-Jan-21 23:33N 70°12' E 017°30'4 3.7
2017-Jan-21 22:33N 70°16' E 017°36'4 3.8
2017-Jan-21 21:33N 70°17' E 017°45'1 0.5
2017-Jan-21 20:33N 70°17' E 017°46'3 3.3
2017-Jan-21 19:33N 70°19' E 017°38'8 7.6
2017-Jan-21 18:33N 70°26' E 017°33'8 8.2
2017-Jan-21 17:33N 70°35' E 017°28'2 2.0
2017-Jan-21 16:33N 70°33' E 017°26'4 4.0
2017-Jan-21 15:33N 70°29' E 017°20'4 3.6
2017-Jan-21 14:33N 70°26' E 017°17'4 3.6
2017-Jan-21 13:33N 70°22' E 017°16'3 3.4
2017-Jan-21 12:33N 70°19' E 017°15'4 3.6
2017-Jan-21 11:33N 70°16' E 017°10'9 4.3
2017-Jan-21 09:33N 70°15' E 017°36'18 7.1
2017-Jan-21 07:05N 70°29' E 018°06'1 2.4
2017-Jan-21 06:28N 70°29' E 018°02'3 3.6
2017-Jan-21 05:33N 70°29' E 017°53'4 3.5
2017-Jan-21 04:33N 70°28' E 017°43'4 3.7
2017-Jan-21 03:33N 70°27' E 017°32'4 3.9
2017-Jan-21 02:33N 70°25' E 017°21'3 3.0
2017-Jan-21 01:33N 70°23' E 017°18'4 3.9
2017-Jan-21 00:33N 70°19' E 017°24'4 4.1
2017-Jan-20 23:33N 70°15' E 017°25'5 4.7
2017-Jan-20 22:33N 70°10' E 017°26'6 6.1
2017-Jan-20 21:33N 70°04' E 017°27'7 6.5
2017-Jan-20 20:33N 69°58' E 017°29'  
Track history (hours):
 
Tides and Currents Weather Stations Pressure Air Temp Water Temp Dewpoint Dewpoint Depression Visibility Wind Speed Wind Dir Waves Ship Positions

Almak

Last reported at 2017-Jan-23 17:33 UTC. Time now 2017-Jan-23 23:04 UTC.
Position N 70°14' E 017°08'.

Length 42 m; draft 6.5 m.

Type: Fishing. MMSI: 273317270.

Date/timePositionNaut miles runAvg speedWind from/ knotsBaromVisibWave heightAir tempDewpointWater temp
2017-Jan-23 17:33N 70°14' E 017°08'1 1.1
2017-Jan-23 16:33N 70°14' E 017°11'4 3.7
2017-Jan-23 15:33N 70°10' E 017°12'5 1.8
2017-Jan-23 12:33N 70°05' E 017°15'5 4.8
2017-Jan-23 11:33N 70°08' E 017°26'3 2.2
2017-Jan-23 10:16N 70°05' E 017°29'2 3.1
2017-Jan-23 09:33N 70°07' E 017°25'3 3.1
2017-Jan-23 08:33N 70°10' E 017°24'3 3.0
2017-Jan-23 07:33N 70°13' E 017°22'3 3.4
2017-Jan-23 06:33N 70°14' E 017°13'3 3.3
2017-Jan-23 05:33N 70°11' E 017°10'4 4.0
2017-Jan-23 04:33N 70°07' E 017°11'4 3.9
2017-Jan-23 03:33N 70°04' E 017°06'3 3.4
2017-Jan-23 02:33N 70°02' E 016°58'10 9.7
2017-Jan-23 01:33N 70°11' E 017°03'10 9.7
2017-Jan-23 00:33N 70°21' E 017°13'1 1.4
2017-Jan-22 23:33N 70°22' E 017°15'3 3.1
2017-Jan-22 22:33N 70°19' E 017°11'3 3.4
2017-Jan-22 21:33N 70°16' E 017°09'4 3.6
2017-Jan-22 20:33N 70°12' E 017°10'7 3.3
2017-Jan-22 18:20N 70°13' E 017°31'18 2.2
2017-Jan-22 10:18N 70°25' E 018°09'6 7.5
2017-Jan-22 09:31N 70°24' E 017°52'1010.2
2017-Jan-22 08:33N 70°22' E 017°23'3 2.6
2017-Jan-22 07:33N 70°19' E 017°20'3 3.4
2017-Jan-22 06:33N 70°17' E 017°26'3 3.4
2017-Jan-22 05:33N 70°16' E 017°36'2 2.1
2017-Jan-22 04:33N 70°14' E 017°34'4 3.6
2017-Jan-22 03:33N 70°13' E 017°25'4 3.5
2017-Jan-22 02:33N 70°12' E 017°14'0 0.4
2017-Jan-22 01:34N 70°13' E 017°15'5 2.6
2017-Jan-21 23:33N 70°12' E 017°30'4 3.7
2017-Jan-21 22:33N 70°16' E 017°36'4 3.8
2017-Jan-21 21:33N 70°17' E 017°45'1 0.5
2017-Jan-21 20:33N 70°17' E 017°46'3 3.3
2017-Jan-21 19:33N 70°19' E 017°38'8 7.6
2017-Jan-21 18:33N 70°26' E 017°33'8 8.2
2017-Jan-21 17:33N 70°35' E 017°28'2 2.0
2017-Jan-21 16:33N 70°33' E 017°26'4 4.0
2017-Jan-21 15:33N 70°29' E 017°20'4 3.6
2017-Jan-21 14:33N 70°26' E 017°17'4 3.6
2017-Jan-21 13:33N 70°22' E 017°16'3 3.4
2017-Jan-21 12:33N 70°19' E 017°15'4 3.6
2017-Jan-21 11:33N 70°16' E 017°10'9 4.3
2017-Jan-21 09:33N 70°15' E 017°36'18 7.1
2017-Jan-21 07:05N 70°29' E 018°06'1 2.4
2017-Jan-21 06:28N 70°29' E 018°02'3 3.6
2017-Jan-21 05:33N 70°29' E 017°53'4 3.5
2017-Jan-21 04:33N 70°28' E 017°43'4 3.7
2017-Jan-21 03:33N 70°27' E 017°32'4 3.9
2017-Jan-21 02:33N 70°25' E 017°21'3 3.0
2017-Jan-21 01:33N 70°23' E 017°18'4 3.9
2017-Jan-21 00:33N 70°19' E 017°24'4 4.1
2017-Jan-20 23:33N 70°15' E 017°25'5 4.7
2017-Jan-20 22:33N 70°10' E 017°26'6 6.1
2017-Jan-20 21:33N 70°04' E 017°27'7 6.5
2017-Jan-20 20:33N 69°58' E 017°29'  

Dump ship's entire track history